Have a Safe July 4th! 

Flight Track Log - Related Links

Times and Time Zones

All times are in EDT time to prevent confusion due to time zone crossing. See the RPA3468 flight status page for this flight to view local times or setup timezone preferences in your user account.

Time Position Orientation Groundspeed Altitude Reporting Facility
EDT Latitude Longitude Course Direction KTS MPH feet Rate Location/Type
Fri 07:44:35 PM 38.8000 -77.0333 83° East 166 191 2,300  Level Potomac TRACON
Fri 07:45:35 PM 38.7667 -76.9833 131° Southeast 261 300 4,200 2,414 Climbing Potomac TRACON
Fri 07:46:00 PM 38.9792 -76.6583 57° Northeast  Level FlightAware Approximate
Fri 07:47:00 PM 39.0280 -76.5328 67° East  Level FlightAware Approximate
Fri 07:47:29 PM 38.8728 -76.9089 29° Northeast 280 322 9,300  Level Washington Center
Fri 07:48:00 PM 39.0778 -76.4074 61° Northeast  Level FlightAware Approximate
Fri 07:48:27 PM 38.9339 -76.8458 39° Northeast 280 322 11,000  Level Washington Center
Fri 07:49:00 PM 39.1167 -76.2793 90° East  Level FlightAware Approximate
Fri 07:49:27 PM 38.9706 -76.7344 67° East 295 339 13,200  Level Washington Center
Fri 07:50:00 PM 39.1561 -76.1555 83° East  Level FlightAware Approximate
Fri 07:50:28 PM 39.0072 -76.6014 70° East 335 386 15,600  Level Washington Center
Fri 07:51:26 PM 39.0308 -76.5003 73° East 357 411 17,200 1,850 Climbing Washington Center
Fri 07:52:28 PM 39.0694 -76.3481 72° East 373 429 19,300 1,721 Climbing Washington Center
Fri 07:53:28 PM 39.1036 -76.2147 72° East 380 437 20,700 1,339 Climbing Washington Center
Fri 07:54:29 PM 39.1436 -76.0842 68° East 380 437 22,000 1,311 Climbing Washington Center
Fri 07:55:27 PM 39.1756 -75.9422 74° East 386 444 23,300 1,361 Climbing Washington Center
Fri 07:56:28 PM 39.2361 -75.8194 57° Northeast 391 450 24,700 1,289 Climbing Washington Center
Fri 07:57:28 PM 39.3156 -75.7178 45° Northeast 391 450 25,900 1,140 Climbing Washington Center
Fri 07:58:29 PM 39.4011 -75.6158 43° Northeast 397 457 27,000 1,109 Climbing Washington Center
Fri 07:59:27 PM 39.4844 -75.5081 45° Northeast 402 463 28,100 1,525 Climbing Washington Center
Fri 08:00:27 PM 39.5675 -75.3950 46° Northeast 413 475 30,000 1,438 Climbing Washington Center
Fri 08:01:28 PM 39.6486 -75.2897 45° Northeast 413 475 31,000 496 Climbing Washington Center
Fri 08:02:28 PM 39.7233 -75.1814 48° Northeast 402 463 31,000  Level Washington Center
Fri 08:03:17 PM 39.7864 -75.0906 48° Northeast 414 476 31,000  Level New York Center
Fri 08:04:17 PM 39.8611 -74.9817 48° Northeast 419 482 31,000  Level New York Center
Fri 08:05:18 PM 39.9381 -74.8753 47° Northeast 396 456 31,000  Level New York Center
Fri 08:06:18 PM 40.0144 -74.7714 46° Northeast 396 456 31,000  Level New York Center
Fri 08:07:19 PM 40.1103 -74.7117 25° Northeast 385 443 31,000  Level New York Center
Fri 08:08:19 PM 40.2133 -74.6794 13° North 367 422 31,000  Level New York Center
Fri 08:09:17 PM 40.3106 -74.6414 17° North 362 417 31,000  Level New York Center
Fri 08:10:20 PM 40.4097 -74.6089 14° North 362 417 31,000  Level New York Center
Fri 08:11:17 PM 40.5086 -74.5761 14° North 362 417 31,000  Level New York Center
Fri 08:12:18 PM 40.6097 -74.5436 14° North 362 417 31,000  Level New York Center
Fri 08:14:32 PM 40.8294 -74.4672 15° North 374 430 31,000  Level Boston Center
Fri 08:15:32 PM 40.9281 -74.4317 15° North 374 430 31,000  Level Boston Center
Fri 08:16:32 PM 41.0244 -74.4017 13° North 369 425 31,000  Level Boston Center
Fri 08:17:32 PM 41.1250 -74.3717 13° North 363 418 31,000  Level Boston Center
Fri 08:18:32 PM 41.2256 -74.3389 14° North 363 418 31,000  Level Boston Center
Fri 08:19:32 PM 41.3181 -74.3028 16° North 357 411 31,000  Level Boston Center
Fri 08:20:32 PM 41.4206 -74.2672 15° North 362 417 31,000  Level Boston Center
Fri 08:21:32 PM 41.5192 -74.2339 14° North 362 417 31,000  Level Boston Center
Fri 08:22:32 PM 41.6197 -74.2006 14° North 362 417 31,000  Level Boston Center
Fri 08:23:32 PM 41.7183 -74.1644 15° North 357 411 31,000  Level Boston Center
Fri 08:24:32 PM 41.8083 -74.1392 12° North 357 411 31,000  Level Boston Center
Fri 08:25:32 PM 41.9067 -74.1056 14° North 351 404 31,000  Level Boston Center
Fri 08:26:32 PM 41.9822 -74.0767 16° North 346 398 31,000  Level Boston Center
Fri 08:27:32 PM 42.0994 -74.0350 15° North 346 398 31,000  Level Boston Center
Fri 08:28:32 PM 42.1958 -74.0011 15° North 346 398 31,000  Level Boston Center
Fri 08:29:32 PM 42.2797 -73.9722 14° North 351 404 31,000  Level Boston Center
Fri 08:30:32 PM 42.3739 -73.9408 14° North 351 404 31,000  Level Boston Center
Fri 08:31:32 PM 42.4703 -73.9036 16° North 351 404 31,000  Level Boston Center
Fri 08:32:32 PM 42.5644 -73.8694 15° North 351 404 31,000  Level Boston Center
Fri 08:33:32 PM 42.6669 -73.8350 14° North 351 404 31,000  Level Boston Center
Fri 08:34:32 PM 42.7611 -73.8003 15° North 346 398 31,000  Level Boston Center
Fri 08:35:32 PM 42.8575 -73.7628 16° North 346 398 31,000 -100 Level Boston Center
Fri 08:36:32 PM 42.9517 -73.7278 15° North 346 398 30,800 -800 Descending Boston Center
Fri 08:37:32 PM 43.0292 -73.7011 14° North 346 398 29,400 -1,900 Descending Boston Center
Fri 08:38:32 PM 43.1442 -73.6522 17° North 351 404 27,000 -2,150 Descending Boston Center
Fri 08:39:32 PM 43.2383 -73.6200 14° North 357 411 25,100 -1,500 Descending Boston Center
Fri 08:40:32 PM 43.3325 -73.5875 14° North 357 411 24,000 -650 Descending Boston Center
Fri 08:41:32 PM 43.4244 -73.5492 17° North 352 405 23,800 -1,200 Descending Boston Center
Fri 08:42:32 PM 43.5167 -73.5167 14° North 347 399 21,600 -2,150 Descending Boston Center
Fri 08:43:32 PM 43.6064 -73.4839 15° North 335 386 19,500 -1,850 Descending Boston Center
Fri 08:44:32 PM 43.6858 -73.4536 15° North 335 386 17,900 -1,750 Descending Boston Center
Fri 08:45:32 PM 43.7675 -73.4261 14° North 314 361 16,000 -1,900 Descending Boston Center
Fri 08:46:32 PM 43.8511 -73.3931 16° North 303 349 14,100 -1,850 Descending Boston Center
Fri 08:47:32 PM 43.9244 -73.3508 23° Northeast 298 343 12,300 -1,900 Descending Boston Center
Fri 08:48:32 PM 43.9997 -73.2914 30° Northeast 287 330 10,300 -1,950 Descending Boston Center
Fri 08:49:32 PM 44.0669 -73.2403 29° Northeast 280 322 8,400 -1,950 Descending Boston Center
Fri 08:50:32 PM 44.1275 -73.1922 30° Northeast 260 299 6,400 -1,900 Descending Boston Center
Fri 08:51:32 PM 44.1861 -73.1494 28° Northeast 240 276 4,600 -1,300 Descending Boston Center
Fri 08:52:32 PM 44.2364 -73.1122 28° Northeast 221 254 3,800 -400 Descending Boston Center
Fri 08:53:32 PM 44.2803 -73.0781 29° Northeast 192 221 3,800  Level Boston Center
Fri 08:54:32 PM 44.3244 -73.0436 29° Northeast 172 198 3,800 -200 Level Boston Center
Fri 08:55:32 PM 44.3639 -73.0383 North 156 180 3,400 -550 Descending Boston Center
Fri 08:56:32 PM 44.3950 -73.0503 345° North 137 158 2,700 -700 Descending Boston Center

Login

Don't have an account? Register now (free) for customized features, flight alerts, and more!